Time,TemperatureF,DewpointF,PressureIn,WindDirection,WindDirectionDegrees,WindSpeedMPH,WindSpeedGustMPH,Humidity,HourlyPrecipIn,Conditions,Clouds,dailyrainin,SolarRadiationWatts/m^2,SoftwareType,DateUTC
2013-10-13 00:00:00,54.0,39.0,-100.00,West,270,7.0,-999.0,58,-99.99,,,-99.99,0.000000,,2013-10-13 05:00:00,
2013-10-13 00:43:00,54.0,39.0,-100.00,West,270,7.0,-999.0,58,-99.99,,,-99.99,0.000000,,2013-10-13 05:43:00,
2013-10-13 00:52:00,54.0,39.0,-100.00,West,270,7.0,-999.0,58,-99.99,,,-99.99,0.000000,,2013-10-13 05:52:00,
2013-10-13 02:00:00,51.0,40.0,-100.00,West,270,7.0,-999.0,65,-99.99,,,-99.99,0.000000,,2013-10-13 07:00:00,
2013-10-13 02:42:00,51.0,40.0,-100.00,West,270,7.0,-999.0,65,-99.99,,,-99.99,0.000000,,2013-10-13 07:42:00,
2013-10-13 02:52:00,51.0,40.0,-100.00,West,270,7.0,-999.0,65,-99.99,,,-99.99,0.000000,,2013-10-13 07:52:00,
2013-10-13 03:00:00,50.0,40.0,-100.00,WNW,292,6.0,-999.0,68,-99.99,,,-99.99,0.000000,,2013-10-13 08:00:00,
2013-10-13 03:42:00,50.0,40.0,-100.00,WNW,292,6.0,-999.0,68,-99.99,,,-99.99,0.000000,,2013-10-13 08:42:00,
2013-10-13 03:52:00,50.0,40.0,-100.00,WNW,292,6.0,-999.0,68,-99.99,,,-99.99,0.000000,,2013-10-13 08:52:00,
2013-10-13 04:00:00,50.0,40.0,-100.00,WNW,292,5.0,-999.0,70,-99.99,,,-99.99,0.000000,,2013-10-13 09:00:00,
2013-10-13 04:43:00,50.0,40.0,-100.00,WNW,292,5.0,-999.0,70,-99.99,,,-99.99,0.000000,,2013-10-13 09:43:00,
2013-10-13 04:53:00,50.0,40.0,-100.00,WNW,292,5.0,-999.0,70,-99.99,,,-99.99,0.000000,,2013-10-13 09:53:00,
2013-10-13 05:00:00,49.0,41.0,-100.00,WNW,292,4.0,-999.0,73,-99.99,,,-99.99,0.000000,,2013-10-13 10:00:00,
2013-10-13 05:43:00,49.0,41.0,-100.00,WNW,292,4.0,-999.0,73,-99.99,,,-99.99,0.000000,,2013-10-13 10:43:00,
2013-10-13 05:53:00,49.0,41.0,-100.00,WNW,292,4.0,-999.0,73,-99.99,,,-99.99,0.000000,,2013-10-13 10:53:00,
2013-10-13 06:00:00,49.0,41.0,-100.00,WNW,292,3.0,-999.0,74,-99.99,,,-99.99,0.000000,,2013-10-13 11:00:00,
2013-10-13 06:42:00,49.0,41.0,-100.00,WNW,292,3.0,-999.0,74,-99.99,,,-99.99,0.000000,,2013-10-13 11:42:00,
2013-10-13 06:52:00,49.0,41.0,-100.00,WNW,292,3.0,-999.0,74,-99.99,,,-99.99,0.000000,,2013-10-13 11:52:00,
2013-10-13 07:00:00,49.0,42.0,-100.00,West,270,4.0,-999.0,74,-99.99,,,-99.99,1.160000,,2013-10-13 12:00:00,
2013-10-13 07:42:00,49.0,42.0,-100.00,West,270,4.0,-999.0,74,-99.99,,,-99.99,1.160000,,2013-10-13 12:42:00,
2013-10-13 07:52:00,49.0,42.0,-100.00,West,270,4.0,-999.0,74,-99.99,,,-99.99,1.160000,,2013-10-13 12:52:00,
2013-10-13 08:00:00,50.0,43.0,-100.00,West,270,4.0,-999.0,75,-99.99,,,-99.99,15.080000,,2013-10-13 13:00:00,
2013-10-13 08:42:00,50.0,43.0,-100.00,West,270,4.0,-999.0,75,-99.99,,,-99.99,15.080000,,2013-10-13 13:42:00,
2013-10-13 08:52:00,50.0,43.0,-100.00,West,270,4.0,-999.0,75,-99.99,,,-99.99,15.080000,,2013-10-13 13:52:00,
2013-10-13 09:00:00,53.0,44.0,-100.00,WNW,292,5.0,-999.0,70,-99.99,,,-99.99,234.320007,,2013-10-13 14:00:00,
2013-10-13 09:42:00,53.0,44.0,-100.00,WNW,292,5.0,-999.0,70,-99.99,,,-99.99,234.320007,,2013-10-13 14:42:00,
2013-10-13 09:52:00,53.0,44.0,-100.00,WNW,292,5.0,-999.0,70,-99.99,,,-99.99,234.320007,,2013-10-13 14:52:00,
2013-10-13 10:00:00,54.0,44.0,-100.00,WNW,292,5.0,-999.0,70,-99.99,,,-99.99,300.440002,,2013-10-13 15:00:00,
2013-10-13 10:43:00,54.0,44.0,-100.00,WNW,292,5.0,-999.0,70,-99.99,,,-99.99,300.440002,,2013-10-13 15:43:00,
2013-10-13 10:54:00,54.0,44.0,-100.00,WNW,292,5.0,-999.0,70,-99.99,,,-99.99,300.440002,,2013-10-13 15:54:00,
2013-10-13 11:00:00,55.0,44.0,-100.00,WNW,292,5.0,-999.0,67,-99.99,,,-99.99,435.000000,,2013-10-13 16:00:00,
2013-10-13 11:43:00,55.0,44.0,-100.00,WNW,292,5.0,-999.0,67,-99.99,,,-99.99,435.000000,,2013-10-13 16:43:00,
2013-10-13 11:54:00,55.0,44.0,-100.00,WNW,292,5.0,-999.0,67,-99.99,,,-99.99,435.000000,,2013-10-13 16:54:00,
2013-10-13 12:00:00,54.0,43.0,-100.00,NW,315,4.0,-999.0,66,-99.99,,,-99.99,211.119995,,2013-10-13 17:00:00,
2013-10-13 12:43:00,54.0,43.0,-100.00,NW,315,4.0,-999.0,66,-99.99,,,-99.99,211.119995,,2013-10-13 17:43:00,
2013-10-13 12:52:00,54.0,43.0,-100.00,NW,315,4.0,-999.0,66,-99.99,,,-99.99,211.119995,,2013-10-13 17:52:00,
2013-10-13 13:00:00,55.0,40.0,-100.00,NW,315,4.0,-999.0,56,-99.99,,,-99.99,274.920013,,2013-10-13 18:00:00,
2013-10-13 13:42:00,55.0,40.0,-100.00,NW,315,4.0,-999.0,56,-99.99,,,-99.99,274.920013,,2013-10-13 18:42:00,
2013-10-13 13:52:00,55.0,40.0,-100.00,NW,315,4.0,-999.0,56,-99.99,,,-99.99,274.920013,,2013-10-13 18:52:00,
2013-10-13 14:00:00,55.0,39.0,-100.00,NW,315,3.0,-999.0,53,-99.99,,,-99.99,241.279999,,2013-10-13 19:00:00,
2013-10-13 14:42:00,55.0,39.0,-100.00,NW,315,3.0,-999.0,53,-99.99,,,-99.99,241.279999,,2013-10-13 19:42:00,
2013-10-13 14:53:00,55.0,39.0,-100.00,NW,315,3.0,-999.0,53,-99.99,,,-99.99,241.279999,,2013-10-13 19:53:00,
2013-10-13 15:00:00,56.0,37.0,-100.00,NNW,337,4.0,-999.0,48,-99.99,,,-99.99,305.079987,,2013-10-13 20:00:00,
2013-10-13 15:43:00,56.0,37.0,-100.00,NNW,337,4.0,-999.0,48,-99.99,,,-99.99,305.079987,,2013-10-13 20:43:00,
2013-10-13 15:52:00,56.0,37.0,-100.00,NNW,337,4.0,-999.0,48,-99.99,,,-99.99,305.079987,,2013-10-13 20:52:00,
2013-10-13 16:00:00,56.0,39.0,-100.00,NNW,337,5.0,-999.0,52,-99.99,,,-99.99,203.000000,,2013-10-13 21:00:00,
2013-10-13 16:44:00,56.0,39.0,-100.00,NNW,337,5.0,-999.0,52,-99.99,,,-99.99,203.000000,,2013-10-13 21:44:00,
2013-10-13 16:55:00,56.0,39.0,-100.00,NNW,337,5.0,-999.0,52,-99.99,,,-99.99,203.000000,,2013-10-13 21:55:00,
2013-10-13 17:00:00,56.0,37.0,-100.00,NNW,337,3.0,-999.0,48,-99.99,,,-99.99,214.600006,,2013-10-13 22:00:00,
2013-10-13 17:43:00,56.0,37.0,-100.00,NNW,337,3.0,-999.0,48,-99.99,,,-99.99,214.600006,,2013-10-13 22:43:00,
2013-10-13 17:53:00,56.0,37.0,-100.00,NNW,337,3.0,-999.0,48,-99.99,,,-99.99,214.600006,,2013-10-13 22:53:00,
2013-10-13 18:00:00,53.0,39.0,-100.00,ESE,112,1.0,-999.0,57,-99.99,,,-99.99,64.959999,,2013-10-13 23:00:00,
2013-10-13 18:42:00,53.0,39.0,-100.00,ESE,112,1.0,-999.0,57,-99.99,,,-99.99,64.959999,,2013-10-13 23:42:00,
2013-10-13 18:52:00,53.0,39.0,-100.00,ESE,112,1.0,-999.0,57,-99.99,,,-99.99,64.959999,,2013-10-13 23:52:00,
2013-10-13 19:00:00,46.0,41.0,-100.00,SW,225,0.0,-999.0,81,-99.99,,,-99.99,1.160000,,2013-10-14 00:00:00,
2013-10-13 19:42:00,46.0,41.0,-100.00,SW,225,0.0,-999.0,81,-99.99,,,-99.99,1.160000,,2013-10-14 00:42:00,
2013-10-13 19:52:00,46.0,41.0,-100.00,SW,225,0.0,-999.0,81,-99.99,,,-99.99,1.160000,,2013-10-14 00:52:00,
2013-10-13 20:00:00,42.0,39.0,-100.00,SSW,202,0.0,-999.0,87,-99.99,,,-99.99,0.000000,,2013-10-14 01:00:00,
2013-10-13 20:42:00,42.0,39.0,-100.00,SSW,202,0.0,-999.0,87,-99.99,,,-99.99,0.000000,,2013-10-14 01:42:00,
2013-10-13 20:52:00,42.0,39.0,-100.00,SSW,202,0.0,-999.0,87,-99.99,,,-99.99,0.000000,,2013-10-14 01:52:00,
2013-10-13 21:00:00,38.0,36.0,-100.00,WSW,247,0.0,-999.0,91,-99.99,,,-99.99,0.000000,,2013-10-14 02:00:00,
2013-10-13 21:42:00,38.0,36.0,-100.00,WSW,247,0.0,-999.0,91,-99.99,,,-99.99,0.000000,,2013-10-14 02:42:00,
2013-10-13 21:52:00,38.0,36.0,-100.00,WSW,247,0.0,-999.0,91,-99.99,,,-99.99,0.000000,,2013-10-14 02:52:00,
2013-10-13 22:00:00,37.0,35.0,-100.00,WSW,247,0.0,-999.0,93,-99.99,,,-99.99,0.000000,,2013-10-14 03:00:00,
2013-10-13 22:44:00,37.0,35.0,-100.00,WSW,247,0.0,-999.0,93,-99.99,,,-99.99,0.000000,,2013-10-14 03:44:00,
2013-10-13 22:55:00,37.0,35.0,-100.00,WSW,247,0.0,-999.0,93,-99.99,,,-99.99,0.000000,,2013-10-14 03:55:00,
2013-10-13 23:00:00,35.0,34.0,-100.00,WSW,247,0.0,-999.0,94,-99.99,,,-99.99,0.000000,,2013-10-14 04:00:00,
2013-10-13 23:44:00,35.0,34.0,-100.00,WSW,247,0.0,-999.0,94,-99.99,,,-99.99,0.000000,,2013-10-14 04:44:00,
2013-10-13 23:54:00,35.0,34.0,-100.00,WSW,247,0.0,-999.0,94,-99.99,,,-99.99,0.000000,,2013-10-14 04:54:00,